sensor_id;sensor_type;location;lat;lon;timestamp;P1;durP1;ratioP1;P2;durP2;ratioP2
18425;SDS011;9340;48.756;9.226;2023-04-29T00:01:45;7.47;;;6.67;;
18425;SDS011;9340;48.756;9.226;2023-04-29T00:04:16;3.80;;;3.50;;
18425;SDS011;9340;48.756;9.226;2023-04-29T00:06:42;7.00;;;6.03;;
18425;SDS011;9340;48.756;9.226;2023-04-29T00:09:09;3.90;;;3.50;;
18425;SDS011;9340;48.756;9.226;2023-04-29T00:11:36;5.20;;;4.67;;
18425;SDS011;9340;48.756;9.226;2023-04-29T00:14:02;4.70;;;4.13;;
18425;SDS011;9340;48.756;9.226;2023-04-29T00:16:29;6.03;;;5.53;;
18425;SDS011;9340;48.756;9.226;2023-04-29T00:18:56;4.97;;;4.57;;
18425;SDS011;9340;48.756;9.226;2023-04-29T00:21:24;7.10;;;4.17;;
18425;SDS011;9340;48.756;9.226;2023-04-29T00:23:52;5.07;;;4.67;;
18425;SDS011;9340;48.756;9.226;2023-04-29T00:26:19;6.80;;;5.30;;
18425;SDS011;9340;48.756;9.226;2023-04-29T00:28:46;4.13;;;3.77;;
18425;SDS011;9340;48.756;9.226;2023-04-29T00:31:12;4.30;;;3.90;;
18425;SDS011;9340;48.756;9.226;2023-04-29T00:33:39;3.90;;;3.50;;
18425;SDS011;9340;48.756;9.226;2023-04-29T00:36:06;7.27;;;6.67;;
18425;SDS011;9340;48.756;9.226;2023-04-29T00:38:35;5.73;;;3.87;;
18425;SDS011;9340;48.756;9.226;2023-04-29T00:41:02;8.10;;;5.13;;
18425;SDS011;9340;48.756;9.226;2023-04-29T00:43:29;3.67;;;3.17;;
18425;SDS011;9340;48.756;9.226;2023-04-29T00:45:56;6.43;;;4.60;;
18425;SDS011;9340;48.756;9.226;2023-04-29T00:48:22;3.20;;;3.00;;
18425;SDS011;9340;48.756;9.226;2023-04-29T00:50:49;4.40;;;3.60;;
18425;SDS011;9340;48.756;9.226;2023-04-29T00:53:16;14.17;;;5.47;;
18425;SDS011;9340;48.756;9.226;2023-04-29T00:55:44;5.13;;;4.20;;
18425;SDS011;9340;48.756;9.226;2023-04-29T00:58:12;6.47;;;5.47;;
18425;SDS011;9340;48.756;9.226;2023-04-29T01:00:39;5.50;;;4.67;;
18425;SDS011;9340;48.756;9.226;2023-04-29T01:03:08;5.10;;;4.70;;
18425;SDS011;9340;48.756;9.226;2023-04-29T01:05:35;4.17;;;3.67;;
18425;SDS011;9340;48.756;9.226;2023-04-29T01:08:05;4.13;;;3.03;;
18425;SDS011;9340;48.756;9.226;2023-04-29T01:10:44;5.27;;;4.67;;
18425;SDS011;9340;48.756;9.226;2023-04-29T01:13:20;4.97;;;4.47;;
18425;SDS011;9340;48.756;9.226;2023-04-29T01:15:57;3.13;;;2.67;;
18425;SDS011;9340;48.756;9.226;2023-04-29T01:18:28;6.00;;;3.07;;
18425;SDS011;9340;48.756;9.226;2023-04-29T01:20:58;3.17;;;2.87;;
18425;SDS011;9340;48.756;9.226;2023-04-29T01:23:27;6.57;;;5.30;;
18425;SDS011;9340;48.756;9.226;2023-04-29T01:25:54;4.30;;;3.23;;
18425;SDS011;9340;48.756;9.226;2023-04-29T01:28:25;7.23;;;4.10;;
18425;SDS011;9340;48.756;9.226;2023-04-29T01:31:05;4.77;;;3.07;;
18425;SDS011;9340;48.756;9.226;2023-04-29T01:33:37;4.20;;;3.53;;
18425;SDS011;9340;48.756;9.226;2023-04-29T01:36:11;4.40;;;2.67;;
18425;SDS011;9340;48.756;9.226;2023-04-29T01:38:47;6.47;;;4.97;;
18425;SDS011;9340;48.756;9.226;2023-04-29T01:41:21;9.03;;;3.77;;
18425;SDS011;9340;48.756;9.226;2023-04-29T01:43:52;3.40;;;3.10;;
18425;SDS011;9340;48.756;9.226;2023-04-29T01:46:23;6.07;;;5.57;;
18425;SDS011;9340;48.756;9.226;2023-04-29T01:48:51;4.33;;;3.13;;
18425;SDS011;9340;48.756;9.226;2023-04-29T01:51:18;4.97;;;3.40;;
18425;SDS011;9340;48.756;9.226;2023-04-29T01:53:45;7.17;;;5.80;;
18425;SDS011;9340;48.756;9.226;2023-04-29T01:56:13;4.23;;;3.20;;
18425;SDS011;9340;48.756;9.226;2023-04-29T01:58:40;4.93;;;3.43;;
18425;SDS011;9340;48.756;9.226;2023-04-29T02:01:06;3.77;;;3.47;;
18425;SDS011;9340;48.756;9.226;2023-04-29T02:03:34;5.40;;;4.77;;
18425;SDS011;9340;48.756;9.226;2023-04-29T02:06:01;5.27;;;4.20;;
18425;SDS011;9340;48.756;9.226;2023-04-29T02:08:28;5.40;;;4.53;;
18425;SDS011;9340;48.756;9.226;2023-04-29T02:10:55;4.77;;;4.07;;
18425;SDS011;9340;48.756;9.226;2023-04-29T02:13:24;4.33;;;2.87;;
18425;SDS011;9340;48.756;9.226;2023-04-29T02:15:51;3.47;;;3.17;;
18425;SDS011;9340;48.756;9.226;2023-04-29T02:18:17;4.20;;;3.07;;
18425;SDS011;9340;48.756;9.226;2023-04-29T02:20:44;4.00;;;3.00;;
18425;SDS011;9340;48.756;9.226;2023-04-29T02:23:11;6.53;;;5.60;;
18425;SDS011;9340;48.756;9.226;2023-04-29T02:25:37;4.20;;;2.97;;
18425;SDS011;9340;48.756;9.226;2023-04-29T02:28:04;3.73;;;3.30;;
18425;SDS011;9340;48.756;9.226;2023-04-29T02:30:32;4.87;;;2.87;;
18425;SDS011;9340;48.756;9.226;2023-04-29T02:32:59;3.30;;;3.00;;
18425;SDS011;9340;48.756;9.226;2023-04-29T02:35:26;5.73;;;3.17;;
18425;SDS011;9340;48.756;9.226;2023-04-29T02:37:52;4.77;;;3.63;;
18425;SDS011;9340;48.756;9.226;2023-04-29T02:40:19;4.90;;;3.30;;
18425;SDS011;9340;48.756;9.226;2023-04-29T02:42:45;4.67;;;4.10;;
18425;SDS011;9340;48.756;9.226;2023-04-29T02:45:12;6.40;;;4.90;;
18425;SDS011;9340;48.756;9.226;2023-04-29T02:47:40;3.60;;;3.33;;
18425;SDS011;9340;48.756;9.226;2023-04-29T02:50:07;3.33;;;3.07;;
18425;SDS011;9340;48.756;9.226;2023-04-29T02:52:34;4.57;;;4.17;;
18425;SDS011;9340;48.756;9.226;2023-04-29T02:55:01;3.43;;;3.13;;
18425;SDS011;9340;48.756;9.226;2023-04-29T02:57:28;4.00;;;3.37;;
18425;SDS011;9340;48.756;9.226;2023-04-29T02:59:56;3.57;;;3.27;;
18425;SDS011;9340;48.756;9.226;2023-04-29T03:02:22;3.60;;;2.73;;
18425;SDS011;9340;48.756;9.226;2023-04-29T03:04:50;3.63;;;3.00;;
18425;SDS011;9340;48.756;9.226;2023-04-29T03:07:17;5.87;;;2.90;;
18425;SDS011;9340;48.756;9.226;2023-04-29T03:09:44;3.80;;;3.47;;
18425;SDS011;9340;48.756;9.226;2023-04-29T03:12:10;4.20;;;3.03;;
18425;SDS011;9340;48.756;9.226;2023-04-29T03:14:37;8.30;;;5.20;;
18425;SDS011;9340;48.756;9.226;2023-04-29T03:17:03;6.23;;;3.70;;
18425;SDS011;9340;48.756;9.226;2023-04-29T03:19:30;4.03;;;3.63;;
18425;SDS011;9340;48.756;9.226;2023-04-29T03:21:58;3.73;;;3.33;;
18425;SDS011;9340;48.756;9.226;2023-04-29T03:24:25;4.80;;;4.23;;
18425;SDS011;9340;48.756;9.226;2023-04-29T03:26:51;3.10;;;2.80;;
18425;SDS011;9340;48.756;9.226;2023-04-29T03:29:18;3.80;;;3.50;;
18425;SDS011;9340;48.756;9.226;2023-04-29T03:31:45;6.40;;;5.30;;
18425;SDS011;9340;48.756;9.226;2023-04-29T03:34:11;3.70;;;3.40;;
18425;SDS011;9340;48.756;9.226;2023-04-29T03:36:39;4.37;;;4.07;;
18425;SDS011;9340;48.756;9.226;2023-04-29T03:39:07;3.90;;;3.23;;
18425;SDS011;9340;48.756;9.226;2023-04-29T03:41:33;3.77;;;3.43;;
18425;SDS011;9340;48.756;9.226;2023-04-29T03:44:00;4.33;;;3.53;;
18425;SDS011;9340;48.756;9.226;2023-04-29T03:46:27;3.77;;;3.33;;
18425;SDS011;9340;48.756;9.226;2023-04-29T03:48:54;3.60;;;3.30;;
18425;SDS011;9340;48.756;9.226;2023-04-29T03:51:21;5.20;;;4.00;;
18425;SDS011;9340;48.756;9.226;2023-04-29T03:53:47;6.50;;;5.40;;
18425;SDS011;9340;48.756;9.226;2023-04-29T03:56:17;3.60;;;3.30;;
18425;SDS011;9340;48.756;9.226;2023-04-29T03:58:43;3.67;;;3.37;;
18425;SDS011;9340;48.756;9.226;2023-04-29T04:01:10;4.70;;;4.30;;
18425;SDS011;9340;48.756;9.226;2023-04-29T04:03:37;4.37;;;3.60;;
18425;SDS011;9340;48.756;9.226;2023-04-29T04:06:03;3.57;;;3.30;;
18425;SDS011;9340;48.756;9.226;2023-04-29T04:08:30;4.03;;;3.73;;
18425;SDS011;9340;48.756;9.226;2023-04-29T04:10:57;3.30;;;3.03;;
18425;SDS011;9340;48.756;9.226;2023-04-29T04:13:28;4.93;;;4.50;;
18425;SDS011;9340;48.756;9.226;2023-04-29T04:15:55;4.00;;;3.60;;
18425;SDS011;9340;48.756;9.226;2023-04-29T04:18:21;4.90;;;3.90;;
18425;SDS011;9340;48.756;9.226;2023-04-29T04:20:48;4.93;;;4.43;;
18425;SDS011;9340;48.756;9.226;2023-04-29T04:23:15;5.07;;;4.53;;
18425;SDS011;9340;48.756;9.226;2023-04-29T04:25:43;5.33;;;3.63;;
18425;SDS011;9340;48.756;9.226;2023-04-29T04:28:11;4.73;;;4.30;;
18425;SDS011;9340;48.756;9.226;2023-04-29T04:30:39;4.60;;;4.20;;
18425;SDS011;9340;48.756;9.226;2023-04-29T04:33:06;6.10;;;3.87;;
18425;SDS011;9340;48.756;9.226;2023-04-29T04:35:34;4.83;;;4.33;;
18425;SDS011;9340;48.756;9.226;2023-04-29T04:38:01;5.67;;;5.07;;
18425;SDS011;9340;48.756;9.226;2023-04-29T04:40:28;4.30;;;3.33;;
18425;SDS011;9340;48.756;9.226;2023-04-29T04:42:54;4.00;;;3.60;;
18425;SDS011;9340;48.756;9.226;2023-04-29T04:45:21;4.37;;;4.07;;
18425;SDS011;9340;48.756;9.226;2023-04-29T04:47:49;7.40;;;3.93;;
18425;SDS011;9340;48.756;9.226;2023-04-29T04:50:16;5.73;;;5.13;;
18425;SDS011;9340;48.756;9.226;2023-04-29T04:52:42;5.47;;;4.97;;
18425;SDS011;9340;48.756;9.226;2023-04-29T04:55:09;8.67;;;7.83;;
18425;SDS011;9340;48.756;9.226;2023-04-29T04:57:36;4.43;;;4.03;;
18425;SDS011;9340;48.756;9.226;2023-04-29T05:00:03;5.00;;;4.57;;
18425;SDS011;9340;48.756;9.226;2023-04-29T05:02:31;6.17;;;5.57;;
18425;SDS011;9340;48.756;9.226;2023-04-29T05:04:59;4.43;;;3.90;;
18425;SDS011;9340;48.756;9.226;2023-04-29T05:07:25;5.20;;;4.57;;
18425;SDS011;9340;48.756;9.226;2023-04-29T05:09:52;6.43;;;5.83;;
18425;SDS011;9340;48.756;9.226;2023-04-29T05:12:19;5.07;;;4.67;;
18425;SDS011;9340;48.756;9.226;2023-04-29T05:14:45;6.23;;;5.67;;
18425;SDS011;9340;48.756;9.226;2023-04-29T05:17:12;5.77;;;5.37;;
18425;SDS011;9340;48.756;9.226;2023-04-29T05:19:39;4.53;;;4.17;;
18425;SDS011;9340;48.756;9.226;2023-04-29T05:22:07;4.00;;;3.70;;
18425;SDS011;9340;48.756;9.226;2023-04-29T05:24:33;4.57;;;4.17;;
18425;SDS011;9340;48.756;9.226;2023-04-29T05:27:02;5.13;;;4.20;;
18425;SDS011;9340;48.756;9.226;2023-04-29T05:29:29;4.50;;;4.20;;
18425;SDS011;9340;48.756;9.226;2023-04-29T05:31:56;4.20;;;3.80;;
18425;SDS011;9340;48.756;9.226;2023-04-29T05:34:23;4.90;;;4.40;;
18425;SDS011;9340;48.756;9.226;2023-04-29T05:36:50;5.57;;;5.17;;
18425;SDS011;9340;48.756;9.226;2023-04-29T05:39:18;6.37;;;5.87;;
18425;SDS011;9340;48.756;9.226;2023-04-29T05:41:44;6.30;;;5.80;;
18425;SDS011;9340;48.756;9.226;2023-04-29T05:44:11;5.90;;;5.43;;
18425;SDS011;9340;48.756;9.226;2023-04-29T05:46:38;5.47;;;5.07;;
18425;SDS011;9340;48.756;9.226;2023-04-29T05:49:04;8.20;;;7.50;;
18425;SDS011;9340;48.756;9.226;2023-04-29T05:51:31;12.23;;;10.10;;
18425;SDS011;9340;48.756;9.226;2023-04-29T05:53:57;6.47;;;6.07;;
18425;SDS011;9340;48.756;9.226;2023-04-29T05:56:25;9.30;;;8.50;;
18425;SDS011;9340;48.756;9.226;2023-04-29T05:58:52;6.57;;;6.07;;
18425;SDS011;9340;48.756;9.226;2023-04-29T06:01:19;6.93;;;6.33;;
18425;SDS011;9340;48.756;9.226;2023-04-29T06:03:45;8.60;;;7.90;;
18425;SDS011;9340;48.756;9.226;2023-04-29T06:06:12;7.07;;;6.47;;
18425;SDS011;9340;48.756;9.226;2023-04-29T06:08:39;6.93;;;6.40;;
18425;SDS011;9340;48.756;9.226;2023-04-29T06:11:06;5.60;;;5.20;;
18425;SDS011;9340;48.756;9.226;2023-04-29T06:13:34;7.90;;;7.20;;
18425;SDS011;9340;48.756;9.226;2023-04-29T06:16:01;7.27;;;6.70;;
18425;SDS011;9340;48.756;9.226;2023-04-29T06:18:27;7.93;;;7.33;;
18425;SDS011;9340;48.756;9.226;2023-04-29T06:20:54;6.47;;;5.97;;
18425;SDS011;9340;48.756;9.226;2023-04-29T06:23:21;6.30;;;5.90;;
18425;SDS011;9340;48.756;9.226;2023-04-29T06:25:47;5.93;;;5.43;;
18425;SDS011;9340;48.756;9.226;2023-04-29T06:28:14;4.63;;;4.23;;
18425;SDS011;9340;48.756;9.226;2023-04-29T06:30:42;4.73;;;4.33;;
18425;SDS011;9340;48.756;9.226;2023-04-29T06:33:10;5.10;;;4.77;;
18425;SDS011;9340;48.756;9.226;2023-04-29T06:35:38;4.47;;;4.17;;
18425;SDS011;9340;48.756;9.226;2023-04-29T06:38:04;4.53;;;4.03;;
18425;SDS011;9340;48.756;9.226;2023-04-29T06:40:32;5.70;;;5.30;;
18425;SDS011;9340;48.756;9.226;2023-04-29T06:42:58;4.43;;;3.97;;
18425;SDS011;9340;48.756;9.226;2023-04-29T06:45:26;4.53;;;4.20;;
18425;SDS011;9340;48.756;9.226;2023-04-29T06:47:54;4.57;;;4.17;;
18425;SDS011;9340;48.756;9.226;2023-04-29T06:50:21;4.90;;;4.30;;
18425;SDS011;9340;48.756;9.226;2023-04-29T06:52:48;4.97;;;4.07;;
18425;SDS011;9340;48.756;9.226;2023-04-29T06:55:15;5.00;;;4.60;;
18425;SDS011;9340;48.756;9.226;2023-04-29T06:57:41;4.80;;;4.40;;
18425;SDS011;9340;48.756;9.226;2023-04-29T07:00:08;4.33;;;4.03;;
18425;SDS011;9340;48.756;9.226;2023-04-29T07:02:35;5.07;;;4.50;;
18425;SDS011;9340;48.756;9.226;2023-04-29T07:05:04;5.37;;;4.97;;
18425;SDS011;9340;48.756;9.226;2023-04-29T07:07:32;3.93;;;3.63;;
18425;SDS011;9340;48.756;9.226;2023-04-29T07:09:58;3.47;;;3.17;;
18425;SDS011;9340;48.756;9.226;2023-04-29T07:12:25;4.32;;;3.53;;
18425;SDS011;9340;48.756;9.226;2023-04-29T07:14:52;4.07;;;3.77;;
18425;SDS011;9340;48.756;9.226;2023-04-29T07:17:19;4.03;;;3.73;;
18425;SDS011;9340;48.756;9.226;2023-04-29T07:19:46;3.90;;;3.60;;
18425;SDS011;9340;48.756;9.226;2023-04-29T07:22:14;3.10;;;2.90;;
18425;SDS011;9340;48.756;9.226;2023-04-29T07:24:40;3.80;;;2.60;;
18425;SDS011;9340;48.756;9.226;2023-04-29T07:27:07;2.90;;;2.70;;
18425;SDS011;9340;48.756;9.226;2023-04-29T07:29:33;2.90;;;2.70;;
18425;SDS011;9340;48.756;9.226;2023-04-29T07:32:00;3.43;;;3.13;;
18425;SDS011;9340;48.756;9.226;2023-04-29T07:34:27;2.87;;;2.67;;
18425;SDS011;9340;48.756;9.226;2023-04-29T07:36:53;2.97;;;2.77;;
18425;SDS011;9340;48.756;9.226;2023-04-29T07:39:22;2.85;;;2.65;;
18425;SDS011;9340;48.756;9.226;2023-04-29T07:41:49;4.68;;;3.00;;
18425;SDS011;9340;48.756;9.226;2023-04-29T07:44:16;2.83;;;2.50;;
18425;SDS011;9340;48.756;9.226;2023-04-29T07:46:42;2.90;;;2.42;;
18425;SDS011;9340;48.756;9.226;2023-04-29T07:49:09;2.42;;;2.22;;
18425;SDS011;9340;48.756;9.226;2023-04-29T07:51:36;3.17;;;2.45;;
18425;SDS011;9340;48.756;9.226;2023-04-29T07:54:05;2.72;;;2.28;;
18425;SDS011;9340;48.756;9.226;2023-04-29T07:56:34;2.53;;;2.33;;
18425;SDS011;9340;48.756;9.226;2023-04-29T07:59:00;2.78;;;2.10;;
18425;SDS011;9340;48.756;9.226;2023-04-29T08:01:27;2.60;;;2.10;;
18425;SDS011;9340;48.756;9.226;2023-04-29T08:03:54;2.05;;;1.90;;
18425;SDS011;9340;48.756;9.226;2023-04-29T08:06:21;2.22;;;2.00;;
18425;SDS011;9340;48.756;9.226;2023-04-29T08:08:47;2.60;;;2.40;;
18425;SDS011;9340;48.756;9.226;2023-04-29T08:11:15;2.30;;;2.10;;
18425;SDS011;9340;48.756;9.226;2023-04-29T08:13:43;2.30;;;2.13;;
18425;SDS011;9340;48.756;9.226;2023-04-29T08:16:10;3.05;;;2.50;;
18425;SDS011;9340;48.756;9.226;2023-04-29T08:18:37;2.28;;;1.90;;
18425;SDS011;9340;48.756;9.226;2023-04-29T08:21:04;5.18;;;2.03;;
18425;SDS011;9340;48.756;9.226;2023-04-29T08:23:31;2.88;;;1.80;;
18425;SDS011;9340;48.756;9.226;2023-04-29T08:25:58;3.20;;;2.42;;
18425;SDS011;9340;48.756;9.226;2023-04-29T08:28:25;2.53;;;2.33;;
18425;SDS011;9340;48.756;9.226;2023-04-29T08:30:53;2.38;;;2.17;;
18425;SDS011;9340;48.756;9.226;2023-04-29T08:33:20;2.47;;;2.08;;
18425;SDS011;9340;48.756;9.226;2023-04-29T08:35:47;1.90;;;1.80;;
18425;SDS011;9340;48.756;9.226;2023-04-29T08:38:14;2.85;;;2.45;;
18425;SDS011;9340;48.756;9.226;2023-04-29T08:40:41;3.70;;;2.22;;
18425;SDS011;9340;48.756;9.226;2023-04-29T08:43:09;3.55;;;2.42;;
18425;SDS011;9340;48.756;9.226;2023-04-29T08:45:36;2.00;;;1.85;;
18425;SDS011;9340;48.756;9.226;2023-04-29T08:48:06;2.30;;;2.10;;
18425;SDS011;9340;48.756;9.226;2023-04-29T08:50:36;2.42;;;2.15;;
18425;SDS011;9340;48.756;9.226;2023-04-29T08:53:04;3.50;;;2.33;;
18425;SDS011;9340;48.756;9.226;2023-04-29T08:55:32;2.53;;;2.33;;
18425;SDS011;9340;48.756;9.226;2023-04-29T08:58:00;4.20;;;2.80;;
18425;SDS011;9340;48.756;9.226;2023-04-29T09:00:29;3.30;;;3.00;;
18425;SDS011;9340;48.756;9.226;2023-04-29T09:02:56;3.53;;;2.85;;
18425;SDS011;9340;48.756;9.226;2023-04-29T09:05:27;2.60;;;2.40;;
18425;SDS011;9340;48.756;9.226;2023-04-29T09:07:53;4.37;;;3.27;;
18425;SDS011;9340;48.756;9.226;2023-04-29T09:10:23;2.53;;;2.33;;
18425;SDS011;9340;48.756;9.226;2023-04-29T09:12:50;2.83;;;2.63;;
18425;SDS011;9340;48.756;9.226;2023-04-29T09:15:21;3.90;;;3.05;;
18425;SDS011;9340;48.756;9.226;2023-04-29T09:17:48;2.85;;;2.65;;
18425;SDS011;9340;48.756;9.226;2023-04-29T09:20:24;4.25;;;2.20;;
18425;SDS011;9340;48.756;9.226;2023-04-29T09:22:53;3.55;;;2.53;;
18425;SDS011;9340;48.756;9.226;2023-04-29T09:25:22;2.92;;;2.72;;
18425;SDS011;9340;48.756;9.226;2023-04-29T09:27:48;2.97;;;2.70;;
18425;SDS011;9340;48.756;9.226;2023-04-29T09:30:15;2.83;;;2.40;;
18425;SDS011;9340;48.756;9.226;2023-04-29T09:32:43;2.53;;;2.40;;
18425;SDS011;9340;48.756;9.226;2023-04-29T09:35:21;2.80;;;2.60;;
18425;SDS011;9340;48.756;9.226;2023-04-29T09:37:50;2.67;;;2.47;;
18425;SDS011;9340;48.756;9.226;2023-04-29T09:40:27;4.85;;;2.85;;
18425;SDS011;9340;48.756;9.226;2023-04-29T09:42:55;2.80;;;2.60;;
18425;SDS011;9340;48.756;9.226;2023-04-29T09:45:32;3.08;;;2.20;;
18425;SDS011;9340;48.756;9.226;2023-04-29T09:48:00;3.30;;;2.40;;
18425;SDS011;9340;48.756;9.226;2023-04-29T09:50:28;4.13;;;2.70;;
18425;SDS011;9340;48.756;9.226;2023-04-29T09:52:56;2.92;;;2.72;;
18425;SDS011;9340;48.756;9.226;2023-04-29T09:55:24;2.88;;;2.67;;
18425;SDS011;9340;48.756;9.226;2023-04-29T09:57:51;2.55;;;2.35;;
18425;SDS011;9340;48.756;9.226;2023-04-29T10:00:18;2.70;;;2.50;;
18425;SDS011;9340;48.756;9.226;2023-04-29T10:02:45;2.40;;;2.30;;
18425;SDS011;9340;48.756;9.226;2023-04-29T10:05:13;3.00;;;2.40;;
18425;SDS011;9340;48.756;9.226;2023-04-29T10:07:40;3.00;;;2.80;;
18425;SDS011;9340;48.756;9.226;2023-04-29T10:10:09;2.90;;;2.70;;
18425;SDS011;9340;48.756;9.226;2023-04-29T10:12:38;2.42;;;2.28;;
18425;SDS011;9340;48.756;9.226;2023-04-29T10:15:07;2.42;;;2.22;;
18425;SDS011;9340;48.756;9.226;2023-04-29T10:17:44;2.53;;;2.33;;
18425;SDS011;9340;48.756;9.226;2023-04-29T10:20:14;3.20;;;3.00;;
18425;SDS011;9340;48.756;9.226;2023-04-29T10:22:47;3.65;;;3.35;;
18425;SDS011;9340;48.756;9.226;2023-04-29T10:25:17;2.53;;;2.33;;
18425;SDS011;9340;48.756;9.226;2023-04-29T10:27:45;3.25;;;2.50;;
18425;SDS011;9340;48.756;9.226;2023-04-29T10:30:13;2.50;;;2.30;;
18425;SDS011;9340;48.756;9.226;2023-04-29T10:32:41;2.63;;;2.42;;
18425;SDS011;9340;48.756;9.226;2023-04-29T10:35:10;4.70;;;2.50;;
18425;SDS011;9340;48.756;9.226;2023-04-29T10:37:38;2.28;;;1.90;;
18425;SDS011;9340;48.756;9.226;2023-04-29T10:40:07;2.45;;;2.25;;
18425;SDS011;9340;48.756;9.226;2023-04-29T10:42:44;3.00;;;2.00;;
18425;SDS011;9340;48.756;9.226;2023-04-29T10:45:19;3.95;;;3.05;;
18425;SDS011;9340;48.756;9.226;2023-04-29T10:50:39;2.63;;;2.42;;
18425;SDS011;9340;48.756;9.226;2023-04-29T10:53:24;3.42;;;2.20;;
18425;SDS011;9340;48.756;9.226;2023-04-29T10:55:52;2.60;;;2.40;;
18425;SDS011;9340;48.756;9.226;2023-04-29T10:58:36;2.83;;;2.63;;
18425;SDS011;9340;48.756;9.226;2023-04-29T11:01:06;5.40;;;2.33;;
18425;SDS011;9340;48.756;9.226;2023-04-29T11:03:51;4.80;;;3.08;;
18425;SDS011;9340;48.756;9.226;2023-04-29T11:06:22;3.40;;;3.05;;
18425;SDS011;9340;48.756;9.226;2023-04-29T11:08:58;3.30;;;3.00;;
18425;SDS011;9340;48.756;9.226;2023-04-29T11:11:38;3.67;;;3.38;;
18425;SDS011;9340;48.756;9.226;2023-04-29T11:14:11;3.47;;;3.13;;
18425;SDS011;9340;48.756;9.226;2023-04-29T11:16:45;3.05;;;2.67;;
18425;SDS011;9340;48.756;9.226;2023-04-29T11:19:14;3.00;;;2.80;;
18425;SDS011;9340;48.756;9.226;2023-04-29T11:21:42;4.03;;;2.67;;
18425;SDS011;9340;48.756;9.226;2023-04-29T11:24:10;3.38;;;3.08;;
18425;SDS011;9340;48.756;9.226;2023-04-29T11:26:37;3.80;;;2.80;;
18425;SDS011;9340;48.756;9.226;2023-04-29T11:29:03;3.20;;;2.67;;
18425;SDS011;9340;48.756;9.226;2023-04-29T11:31:33;2.83;;;2.55;;
18425;SDS011;9340;48.756;9.226;2023-04-29T11:34:02;3.78;;;2.38;;
18425;SDS011;9340;48.756;9.226;2023-04-29T11:36:30;3.00;;;2.70;;
18425;SDS011;9340;48.756;9.226;2023-04-29T11:38:58;2.65;;;2.45;;
18425;SDS011;9340;48.756;9.226;2023-04-29T11:41:25;2.42;;;2.22;;
18425;SDS011;9340;48.756;9.226;2023-04-29T11:43:55;3.90;;;2.90;;
18425;SDS011;9340;48.756;9.226;2023-04-29T11:46:23;2.70;;;2.50;;
18425;SDS011;9340;48.756;9.226;2023-04-29T11:48:51;3.42;;;2.10;;
18425;SDS011;9340;48.756;9.226;2023-04-29T11:51:18;2.30;;;2.17;;
18425;SDS011;9340;48.756;9.226;2023-04-29T11:53:45;2.58;;;2.38;;
18425;SDS011;9340;48.756;9.226;2023-04-29T11:56:11;2.40;;;2.17;;
18425;SDS011;9340;48.756;9.226;2023-04-29T11:58:38;1.98;;;1.88;;
18425;SDS011;9340;48.756;9.226;2023-04-29T12:01:06;2.53;;;2.33;;
18425;SDS011;9340;48.756;9.226;2023-04-29T12:03:33;2.70;;;2.38;;
18425;SDS011;9340;48.756;9.226;2023-04-29T12:06:01;3.60;;;3.28;;
18425;SDS011;9340;48.756;9.226;2023-04-29T12:08:28;4.60;;;3.38;;
18425;SDS011;9340;48.756;9.226;2023-04-29T12:10:57;6.25;;;5.40;;
18425;SDS011;9340;48.756;9.226;2023-04-29T12:13:26;8.05;;;7.35;;
18425;SDS011;9340;48.756;9.226;2023-04-29T12:15:53;5.40;;;4.85;;
18425;SDS011;9340;48.756;9.226;2023-04-29T12:18:22;5.10;;;4.70;;
18425;SDS011;9340;48.756;9.226;2023-04-29T12:20:49;4.40;;;4.00;;
18425;SDS011;9340;48.756;9.226;2023-04-29T12:23:18;5.13;;;4.63;;
18425;SDS011;9340;48.756;9.226;2023-04-29T12:25:47;6.03;;;4.85;;
18425;SDS011;9340;48.756;9.226;2023-04-29T12:28:15;4.38;;;4.00;;
18425;SDS011;9340;48.756;9.226;2023-04-29T12:30:43;3.33;;;2.95;;
18425;SDS011;9340;48.756;9.226;2023-04-29T12:33:11;4.07;;;3.67;;
18425;SDS011;9340;48.756;9.226;2023-04-29T12:35:43;5.57;;;3.95;;
18425;SDS011;9340;48.756;9.226;2023-04-29T12:38:10;4.47;;;4.07;;
18425;SDS011;9340;48.756;9.226;2023-04-29T12:40:40;6.35;;;5.07;;
18425;SDS011;9340;48.756;9.226;2023-04-29T12:43:06;4.95;;;4.55;;
18425;SDS011;9340;48.756;9.226;2023-04-29T12:45:33;6.65;;;5.30;;
18425;SDS011;9340;48.756;9.226;2023-04-29T12:48:00;5.35;;;4.95;;
18425;SDS011;9340;48.756;9.226;2023-04-29T12:50:31;4.22;;;3.40;;
18425;SDS011;9340;48.756;9.226;2023-04-29T12:53:01;5.45;;;5.03;;
18425;SDS011;9340;48.756;9.226;2023-04-29T12:55:30;5.15;;;4.75;;
18425;SDS011;9340;48.756;9.226;2023-04-29T12:57:59;4.90;;;4.40;;
18425;SDS011;9340;48.756;9.226;2023-04-29T13:00:26;6.68;;;5.00;;
18425;SDS011;9340;48.756;9.226;2023-04-29T13:02:53;4.82;;;4.43;;
18425;SDS011;9340;48.756;9.226;2023-04-29T13:05:20;5.75;;;5.25;;
18425;SDS011;9340;48.756;9.226;2023-04-29T13:07:47;5.47;;;4.97;;
18425;SDS011;9340;48.756;9.226;2023-04-29T13:10:13;5.47;;;5.03;;
18425;SDS011;9340;48.756;9.226;2023-04-29T13:12:40;5.28;;;4.78;;
18425;SDS011;9340;48.756;9.226;2023-04-29T13:15:09;6.10;;;5.60;;
18425;SDS011;9340;48.756;9.226;2023-04-29T13:17:36;5.50;;;5.07;;
18425;SDS011;9340;48.756;9.226;2023-04-29T13:20:03;5.35;;;4.85;;
18425;SDS011;9340;48.756;9.226;2023-04-29T13:22:30;5.82;;;5.28;;
18425;SDS011;9340;48.756;9.226;2023-04-29T13:24:57;5.10;;;4.70;;
18425;SDS011;9340;48.756;9.226;2023-04-29T13:27:24;5.00;;;4.57;;
18425;SDS011;9340;48.756;9.226;2023-04-29T13:29:51;5.05;;;4.55;;
18425;SDS011;9340;48.756;9.226;2023-04-29T13:32:20;5.93;;;5.45;;
18425;SDS011;9340;48.756;9.226;2023-04-29T13:34:48;6.38;;;5.88;;
18425;SDS011;9340;48.756;9.226;2023-04-29T13:37:15;5.53;;;5.03;;
18425;SDS011;9340;48.756;9.226;2023-04-29T13:39:42;6.53;;;5.93;;
18425;SDS011;9340;48.756;9.226;2023-04-29T13:42:10;6.00;;;5.50;;
18425;SDS011;9340;48.756;9.226;2023-04-29T13:44:37;7.78;;;7.13;;
18425;SDS011;9340;48.756;9.226;2023-04-29T13:47:07;7.47;;;6.93;;
18425;SDS011;9340;48.756;9.226;2023-04-29T13:49:37;7.78;;;7.07;;
18425;SDS011;9340;48.756;9.226;2023-04-29T13:52:04;6.60;;;6.10;;
18425;SDS011;9340;48.756;9.226;2023-04-29T13:54:32;7.72;;;7.13;;
18425;SDS011;9340;48.756;9.226;2023-04-29T13:56:59;7.22;;;6.63;;
18425;SDS011;9340;48.756;9.226;2023-04-29T13:59:28;7.65;;;6.95;;
18425;SDS011;9340;48.756;9.226;2023-04-29T14:01:54;7.70;;;7.10;;
18425;SDS011;9340;48.756;9.226;2023-04-29T14:04:21;7.03;;;6.43;;
18425;SDS011;9340;48.756;9.226;2023-04-29T14:06:49;6.88;;;6.10;;
18425;SDS011;9340;48.756;9.226;2023-04-29T14:09:16;8.07;;;7.30;;
18425;SDS011;9340;48.756;9.226;2023-04-29T14:11:44;7.35;;;6.68;;
18425;SDS011;9340;48.756;9.226;2023-04-29T14:14:10;8.40;;;7.68;;
18425;SDS011;9340;48.756;9.226;2023-04-29T14:16:37;6.70;;;6.10;;
18425;SDS011;9340;48.756;9.226;2023-04-29T14:19:04;6.85;;;6.20;;
18425;SDS011;9340;48.756;9.226;2023-04-29T14:21:31;8.35;;;7.55;;
18425;SDS011;9340;48.756;9.226;2023-04-29T14:23:59;8.13;;;7.40;;
18425;SDS011;9340;48.756;9.226;2023-04-29T14:26:27;8.48;;;7.32;;
18425;SDS011;9340;48.756;9.226;2023-04-29T14:28:55;7.80;;;7.20;;
18425;SDS011;9340;48.756;9.226;2023-04-29T14:31:22;7.75;;;7.15;;
18425;SDS011;9340;48.756;9.226;2023-04-29T14:33:49;8.15;;;7.35;;
18425;SDS011;9340;48.756;9.226;2023-04-29T14:36:16;6.97;;;6.38;;
18425;SDS011;9340;48.756;9.226;2023-04-29T14:38:42;7.93;;;7.25;;
18425;SDS011;9340;48.756;9.226;2023-04-29T14:41:10;7.68;;;6.97;;
18425;SDS011;9340;48.756;9.226;2023-04-29T14:43:37;7.35;;;6.57;;
18425;SDS011;9340;48.756;9.226;2023-04-29T14:46:05;7.07;;;6.47;;
18425;SDS011;9340;48.756;9.226;2023-04-29T14:48:31;7.97;;;7.32;;
18425;SDS011;9340;48.756;9.226;2023-04-29T14:50:58;7.90;;;7.28;;
18425;SDS011;9340;48.756;9.226;2023-04-29T14:53:25;7.75;;;6.60;;
18425;SDS011;9340;48.756;9.226;2023-04-29T14:55:51;7.40;;;6.80;;
18425;SDS011;9340;48.756;9.226;2023-04-29T14:58:19;7.57;;;6.97;;
18425;SDS011;9340;48.756;9.226;2023-04-29T15:00:46;8.40;;;7.57;;
18425;SDS011;9340;48.756;9.226;2023-04-29T15:03:15;8.02;;;7.32;;
18425;SDS011;9340;48.756;9.226;2023-04-29T15:05:41;6.82;;;6.32;;
18425;SDS011;9340;48.756;9.226;2023-04-29T15:08:08;7.57;;;6.95;;